createdAt,value
2019-04-01T00:01:11.792Z,11.20
2019-04-01T00:03:40.717Z,11.20
2019-04-01T00:06:09.480Z,11.20
2019-04-01T00:08:37.880Z,11.10
2019-04-01T00:11:06.398Z,11.10
2019-04-01T00:13:34.887Z,11.10
2019-04-01T00:16:04.116Z,11.10
2019-04-01T00:18:32.909Z,11.10
2019-04-01T00:21:01.847Z,11.00
2019-04-01T00:23:30.467Z,11.00
2019-04-01T00:26:00.727Z,11.10
2019-04-01T00:28:29.330Z,11.00
2019-04-01T00:30:57.882Z,10.90
2019-04-01T00:33:26.576Z,10.90
2019-04-01T00:35:55.172Z,10.90
2019-04-01T00:38:23.642Z,10.80
2019-04-01T00:40:52.547Z,10.60
2019-04-01T00:43:59.047Z,10.60
2019-04-01T00:46:29.308Z,10.60
2019-04-01T00:48:58.251Z,10.60
2019-04-01T00:51:27.069Z,10.60
2019-04-01T00:53:55.711Z,10.50
2019-04-01T00:56:24.366Z,10.50
2019-04-01T00:58:53.141Z,10.50
2019-04-01T01:01:21.904Z,10.50
2019-04-01T01:03:50.809Z,10.50
2019-04-01T01:06:19.359Z,10.30
2019-04-01T01:08:48.222Z,10.30
2019-04-01T01:11:17.050Z,10.30
2019-04-01T01:13:46.561Z,10.40
2019-04-01T01:16:14.962Z,10.40
2019-04-01T01:18:43.890Z,10.30
2019-04-01T01:21:12.575Z,10.30
2019-04-01T01:23:41.855Z,10.30
2019-04-01T01:26:10.697Z,10.10
2019-04-01T01:28:39.481Z,10.10
2019-04-01T01:31:09.351Z,10.10
2019-04-01T01:33:38.073Z,10.10
2019-04-01T01:36:06.819Z,10.20
2019-04-01T01:38:35.483Z,10.10
2019-04-01T01:41:06.147Z,10.00
2019-04-01T01:43:34.780Z,9.90
2019-04-01T01:46:05.209Z,9.90
2019-04-01T01:48:34.679Z,9.90
2019-04-01T01:51:03.511Z,9.90
2019-04-01T01:53:32.086Z,9.90
2019-04-01T01:56:00.990Z,9.90
2019-04-01T01:58:29.687Z,9.80
2019-04-01T02:00:59.301Z,9.80
2019-04-01T02:03:27.806Z,9.80
2019-04-01T02:05:56.214Z,9.80
2019-04-01T02:08:24.693Z,9.60
2019-04-01T02:10:53.278Z,9.70
2019-04-01T02:13:21.718Z,9.70
2019-04-01T02:15:50.210Z,9.80
2019-04-01T02:18:18.911Z,9.80
2019-04-01T02:20:48.038Z,9.80
2019-04-01T02:23:18.259Z,9.70
2019-04-01T02:25:46.805Z,9.70
2019-04-01T02:28:15.838Z,9.50
2019-04-01T02:30:44.372Z,9.60
2019-04-01T02:33:13.199Z,9.60
2019-04-01T02:35:42.027Z,9.50
2019-04-01T02:38:10.794Z,9.50
2019-04-01T02:40:39.586Z,9.40
2019-04-01T02:43:08.409Z,9.40
2019-04-01T02:45:36.937Z,9.40
2019-04-01T02:48:05.714Z,9.30
2019-04-01T02:50:34.422Z,9.30
2019-04-01T02:53:05.985Z,9.40
2019-04-01T02:55:36.319Z,9.40
2019-04-01T02:58:06.907Z,9.40
2019-04-01T03:00:37.306Z,9.40
2019-04-01T03:03:05.982Z,9.30
2019-04-01T03:05:34.665Z,9.30
2019-04-01T03:08:03.511Z,9.20
2019-04-01T03:10:33.915Z,9.20
2019-04-01T03:13:02.631Z,9.30
2019-04-01T03:15:31.135Z,9.30
2019-04-01T03:17:59.849Z,9.20
2019-04-01T03:20:30.135Z,9.20
2019-04-01T03:23:00.565Z,9.30
2019-04-01T03:25:30.754Z,9.20
2019-04-01T03:27:59.346Z,9.20
2019-04-01T03:30:28.168Z,9.20
2019-04-01T03:32:56.831Z,9.30
2019-04-01T03:35:26.225Z,9.30
2019-04-01T03:37:54.879Z,9.30
2019-04-01T03:40:23.571Z,9.20
2019-04-01T03:42:51.996Z,9.20
2019-04-01T03:45:20.600Z,9.20
2019-04-01T03:47:49.269Z,9.20
2019-04-01T03:50:18.798Z,9.20
2019-04-01T03:52:47.232Z,9.10
2019-04-01T03:55:16.026Z,9.20
2019-04-01T03:57:44.735Z,9.30
2019-04-01T04:00:14.389Z,9.30
2019-04-01T04:02:42.799Z,9.30
2019-04-01T04:05:11.530Z,9.40
2019-04-01T04:07:40.099Z,9.50
2019-04-01T04:10:09.379Z,9.50
2019-04-01T04:12:38.946Z,9.50
2019-04-01T04:15:07.653Z,9.60
2019-04-01T04:17:36.168Z,9.60
2019-04-01T04:20:05.182Z,9.60
2019-04-01T04:22:34.158Z,9.60
2019-04-01T04:25:03.080Z,9.50
2019-04-01T04:27:31.637Z,9.50
2019-04-01T04:30:00.552Z,9.50
2019-04-01T04:32:28.992Z,9.60
2019-04-01T04:34:57.706Z,9.60
2019-04-01T04:37:26.624Z,9.70
2019-04-01T04:39:55.282Z,9.70
2019-04-01T04:42:23.773Z,9.80
2019-04-01T04:44:52.735Z,9.80
2019-04-01T04:47:21.234Z,9.70
2019-04-01T04:49:49.760Z,9.80
2019-04-01T04:52:18.629Z,9.80
2019-04-01T04:54:47.222Z,9.70
2019-04-01T04:57:15.731Z,9.70
2019-04-01T04:59:46.463Z,9.80
2019-04-01T05:02:15.265Z,9.90
2019-04-01T05:04:43.757Z,9.90
2019-04-01T05:07:12.578Z,10.00
2019-04-01T05:09:41.456Z,10.10
2019-04-01T05:12:10.347Z,10.00
2019-04-01T05:14:40.552Z,10.10
2019-04-01T05:17:08.979Z,10.20
2019-04-01T05:19:37.459Z,10.20
2019-04-01T05:22:06.290Z,10.20
2019-04-01T05:24:35.604Z,10.20
2019-04-01T05:27:04.339Z,10.30
2019-04-01T05:29:34.343Z,10.30
2019-04-01T05:32:05.039Z,10.40
2019-04-01T05:34:35.627Z,10.40
2019-04-01T05:37:04.373Z,10.30
2019-04-01T05:39:33.593Z,10.50
2019-04-01T05:42:03.000Z,10.50
2019-04-01T05:44:31.511Z,10.40
2019-04-01T05:47:00.038Z,10.40
2019-04-01T05:49:30.254Z,10.50
2019-04-01T05:51:59.026Z,10.50
2019-04-01T05:54:27.657Z,10.50
2019-04-01T05:56:56.152Z,10.50
2019-04-01T05:59:25.746Z,10.50
2019-04-01T06:01:54.199Z,10.40
2019-04-01T06:04:22.805Z,10.40
2019-04-01T06:06:51.298Z,10.40
2019-04-01T06:09:19.917Z,10.40
2019-04-01T06:11:48.416Z,10.40
2019-04-01T06:14:16.948Z,10.50
2019-04-01T06:16:45.326Z,10.50
2019-04-01T06:19:13.819Z,10.50
2019-04-01T06:21:42.315Z,10.60
2019-04-01T06:24:10.914Z,10.60
2019-04-01T06:26:39.426Z,10.50
2019-04-01T06:29:09.810Z,10.70
2019-04-01T06:31:38.315Z,10.90
2019-04-01T06:34:06.810Z,10.90
2019-04-01T06:36:38.715Z,11.00
2019-04-01T06:39:06.186Z,11.00
2019-04-01T06:41:34.887Z,11.00
2019-04-01T06:44:03.424Z,10.90
2019-04-01T06:46:32.812Z,11.00
2019-04-01T06:49:01.311Z,11.10
2019-04-01T06:51:29.804Z,11.20
2019-04-01T06:53:58.729Z,11.20
2019-04-01T06:56:27.235Z,11.30
2019-04-01T06:58:55.729Z,11.30
2019-04-01T07:01:24.254Z,11.30
2019-04-01T07:03:52.639Z,11.40
2019-04-01T07:06:21.629Z,11.40
2019-04-01T07:08:50.328Z,11.40
2019-04-01T07:11:18.958Z,11.40
2019-04-01T07:13:47.738Z,11.40
2019-04-01T07:16:16.370Z,11.40
2019-04-01T07:18:45.840Z,11.60
2019-04-01T07:21:14.301Z,11.70
2019-04-01T07:23:44.781Z,11.80
2019-04-01T07:26:14.974Z,11.90
2019-04-01T07:28:44.685Z,12.00
2019-04-01T07:31:13.234Z,12.10
2019-04-01T07:33:41.732Z,12.20
2019-04-01T07:36:10.239Z,12.30
2019-04-01T07:38:39.061Z,12.40
2019-04-01T07:41:07.607Z,12.40
2019-04-01T07:43:36.148Z,12.40
2019-04-01T07:46:08.052Z,12.50
2019-04-01T07:48:35.699Z,12.50
2019-04-01T07:51:07.050Z,12.60
2019-04-01T07:53:34.806Z,12.60
2019-04-01T07:56:04.492Z,12.60
2019-04-01T07:58:33.990Z,12.60
2019-04-01T08:01:04.231Z,12.70
2019-04-01T08:03:32.722Z,12.70
2019-04-01T08:06:02.062Z,12.80
2019-04-01T08:08:32.002Z,12.90
2019-04-01T08:11:00.666Z,12.90
2019-04-01T08:13:29.480Z,13.00
2019-04-01T08:15:57.854Z,13.10
2019-04-01T08:18:26.242Z,13.10
2019-04-01T08:20:55.025Z,13.20
2019-04-01T08:23:28.554Z,13.20
2019-04-01T08:25:58.767Z,13.20
2019-04-01T08:28:27.360Z,13.30
2019-04-01T08:30:57.244Z,13.30
2019-04-01T08:33:25.652Z,13.40
2019-04-01T08:35:54.250Z,13.50
2019-04-01T08:38:24.266Z,13.60
2019-04-01T08:40:52.779Z,13.60
2019-04-01T08:43:21.176Z,13.70
2019-04-01T08:45:49.767Z,13.80
2019-04-01T08:48:18.359Z,14.00
2019-04-01T08:50:46.803Z,14.30
2019-04-01T08:53:16.732Z,14.40
2019-04-01T08:55:47.033Z,14.50
2019-04-01T08:58:15.547Z,14.60
2019-04-01T09:00:45.859Z,14.70
2019-04-01T09:03:15.075Z,14.80
2019-04-01T09:05:43.548Z,14.80
2019-04-01T09:08:12.780Z,14.90
2019-04-01T09:10:42.462Z,15.10
2019-04-01T09:13:11.087Z,15.10
2019-04-01T09:15:39.601Z,15.20
2019-04-01T09:18:08.704Z,15.30
2019-04-01T09:20:37.210Z,15.30
2019-04-01T09:23:05.632Z,15.40
2019-04-01T09:25:34.537Z,15.40
2019-04-01T09:28:02.923Z,15.50
2019-04-01T09:30:31.366Z,15.60
2019-04-01T09:32:59.861Z,15.70
2019-04-01T09:35:28.281Z,15.80
2019-04-01T09:37:56.771Z,15.80
2019-04-01T09:40:25.471Z,15.90
2019-04-01T09:42:53.872Z,16.00
2019-04-01T09:45:22.671Z,16.00
2019-04-01T09:47:51.099Z,16.00
2019-04-01T09:50:19.559Z,16.10
2019-04-01T09:52:48.042Z,16.30
2019-04-01T09:55:18.298Z,16.40
2019-04-01T09:57:47.012Z,16.50
2019-04-01T10:00:16.586Z,16.60
2019-04-01T10:02:44.966Z,16.60
2019-04-01T10:05:13.622Z,16.60
2019-04-01T10:07:42.355Z,16.70
2019-04-01T10:10:11.433Z,16.70
2019-04-01T10:12:39.840Z,16.80
2019-04-01T10:15:10.167Z,16.90
2019-04-01T10:17:38.689Z,17.00
2019-04-01T10:20:10.024Z,17.10
2019-04-01T10:22:38.423Z,17.10
2019-04-01T10:25:06.931Z,17.00
2019-04-01T10:27:35.449Z,17.10
2019-04-01T10:30:05.450Z,17.10
2019-04-01T10:32:35.657Z,17.20
2019-04-01T10:35:05.104Z,17.30
2019-04-01T10:37:33.524Z,17.40
2019-04-01T10:40:05.594Z,17.50
2019-04-01T10:42:34.621Z,17.60
2019-04-01T10:45:04.388Z,17.70
2019-04-01T10:47:32.904Z,17.50
2019-04-01T10:50:01.572Z,17.60
2019-04-01T10:52:29.976Z,17.60
2019-04-01T10:54:58.468Z,17.70
2019-04-01T10:57:27.100Z,17.70
2019-04-01T10:59:55.734Z,17.80
2019-04-01T11:02:24.273Z,17.90
2019-04-01T11:04:52.748Z,18.00
2019-04-01T11:07:21.414Z,18.10
2019-04-01T11:09:50.066Z,18.30
2019-04-01T11:12:18.807Z,18.50
2019-04-01T11:14:47.216Z,18.60
2019-04-01T11:17:16.058Z,18.70
2019-04-01T11:19:44.655Z,18.80
2019-04-01T11:22:14.714Z,19.00
2019-04-01T11:24:43.108Z,19.10
2019-04-01T11:27:11.517Z,19.30
2019-04-01T11:29:39.959Z,19.50
2019-04-01T11:32:08.684Z,19.60
2019-04-01T11:34:37.264Z,19.80
2019-04-01T11:37:05.747Z,19.90
2019-04-01T11:39:36.295Z,19.90
2019-04-01T11:42:05.234Z,20.10
2019-04-01T11:44:35.484Z,20.30
2019-04-01T11:47:06.871Z,20.50
2019-04-01T11:49:35.381Z,20.70
2019-04-01T11:52:04.349Z,20.70
2019-04-01T11:54:33.679Z,20.70
2019-04-01T11:57:03.896Z,21.00
2019-04-01T11:59:33.102Z,21.40
2019-04-01T12:02:01.674Z,21.80
2019-04-01T12:04:31.350Z,22.00
2019-04-01T12:07:02.029Z,22.10
2019-04-01T12:09:31.641Z,22.20
2019-04-01T12:12:00.078Z,22.20
2019-04-01T12:14:28.502Z,22.30
2019-04-01T12:16:57.031Z,22.40
2019-04-01T12:19:25.423Z,22.30
2019-04-01T12:21:54.011Z,22.40
2019-04-01T12:24:22.419Z,22.40
2019-04-01T12:26:50.993Z,22.40
2019-04-01T12:29:19.416Z,22.20
2019-04-01T12:31:48.911Z,22.50
2019-04-01T12:34:17.710Z,22.80
2019-04-01T12:36:46.670Z,22.70
2019-04-01T12:39:15.368Z,22.40
2019-04-01T12:41:43.957Z,22.90
2019-04-01T12:44:12.442Z,23.50
2019-04-01T12:46:40.834Z,23.90
2019-04-01T12:49:09.377Z,23.80
2019-04-01T12:51:39.579Z,23.80
2019-04-01T12:54:11.872Z,24.10
2019-04-01T12:56:40.356Z,24.20
2019-04-01T12:59:08.747Z,24.20
2019-04-01T13:01:37.151Z,24.50
2019-04-01T13:04:05.596Z,24.30
2019-04-01T13:06:34.457Z,24.50
2019-04-01T13:09:05.807Z,24.70
2019-04-01T13:11:35.199Z,24.60
2019-04-01T13:14:04.031Z,24.20
2019-04-01T13:16:32.573Z,23.80
2019-04-01T13:19:01.085Z,23.40
2019-04-01T13:21:29.554Z,23.20
2019-04-01T13:23:58.049Z,23.00
2019-04-01T13:26:26.461Z,22.80
2019-04-01T13:28:55.099Z,22.50
2019-04-01T13:31:24.295Z,22.30
2019-04-01T13:33:54.489Z,22.40
2019-04-01T13:36:24.706Z,22.20
2019-04-01T13:38:53.237Z,22.10
2019-04-01T13:41:24.987Z,22.00
2019-04-01T13:43:52.380Z,21.90
2019-04-01T13:46:20.864Z,22.00
2019-04-01T13:48:57.620Z,22.00
2019-04-01T13:51:19.684Z,21.90
2019-04-01T13:53:48.226Z,21.80
2019-04-01T13:56:16.836Z,21.60
2019-04-01T13:58:45.338Z,21.00
2019-04-01T14:01:13.819Z,20.70
2019-04-01T14:03:42.205Z,20.90
2019-04-01T14:06:10.780Z,20.90
2019-04-01T14:08:39.200Z,21.00
2019-04-01T14:11:07.923Z,20.80
2019-04-01T14:13:38.427Z,20.90
2019-04-01T14:16:06.826Z,20.90
2019-04-01T14:18:35.215Z,20.60
2019-04-01T14:21:15.286Z,20.50
2019-04-01T14:23:41.227Z,20.50
2019-04-01T14:26:09.622Z,20.50
2019-04-01T14:28:38.322Z,20.50
2019-04-01T14:31:07.088Z,20.40
2019-04-01T14:33:35.466Z,20.50
2019-04-01T14:36:04.821Z,20.40
2019-04-01T14:38:33.832Z,20.20
2019-04-01T14:41:02.341Z,19.80
2019-04-01T14:43:31.283Z,19.90
2019-04-01T14:45:59.779Z,20.00
2019-04-01T14:48:30.754Z,20.00
2019-04-01T14:50:59.755Z,20.00
2019-04-01T14:53:29.438Z,19.90
2019-04-01T14:55:59.014Z,19.90
2019-04-01T14:58:27.946Z,19.90
2019-04-01T15:00:58.382Z,19.90
2019-04-01T15:03:26.767Z,19.90
2019-04-01T15:06:05.939Z,19.80
2019-04-01T15:08:34.551Z,19.70
2019-04-01T15:11:04.810Z,19.70
2019-04-01T15:13:33.340Z,19.80
2019-04-01T15:16:01.843Z,19.60
2019-04-01T15:18:30.241Z,19.20
2019-04-01T15:20:58.773Z,19.10
2019-04-01T15:23:30.586Z,19.20
2019-04-01T15:25:59.891Z,19.30
2019-04-01T15:28:28.382Z,19.00
2019-04-01T15:30:57.049Z,19.00
2019-04-01T15:33:25.459Z,19.10
2019-04-01T15:35:54.065Z,19.10
2019-04-01T15:38:22.583Z,19.10
2019-04-01T15:40:51.089Z,18.80
2019-04-01T15:43:20.207Z,18.70
2019-04-01T15:45:49.040Z,18.50
2019-04-01T15:48:17.551Z,18.40
2019-04-01T15:50:48.327Z,18.50
2019-04-01T15:53:16.950Z,18.60
2019-04-01T15:55:45.737Z,18.60
2019-04-01T15:58:14.355Z,18.50
2019-04-01T16:00:42.999Z,18.60
2019-04-01T16:03:11.578Z,18.30
2019-04-01T16:05:39.998Z,18.00
2019-04-01T16:08:08.428Z,18.00
2019-04-01T16:10:37.363Z,17.90
2019-04-01T16:13:05.879Z,17.80
2019-04-01T16:15:36.080Z,17.70
2019-04-01T16:18:09.769Z,17.70
2019-04-01T16:20:38.260Z,17.60
2019-04-01T16:23:06.663Z,17.50
2019-04-01T16:25:37.612Z,17.40
2019-04-01T16:28:06.114Z,17.20
2019-04-01T16:30:34.723Z,17.30
2019-04-01T16:33:03.198Z,17.40
2019-04-01T16:35:32.446Z,17.20
2019-04-01T16:38:00.891Z,17.00
2019-04-01T16:40:29.528Z,17.00
2019-04-01T16:42:57.923Z,17.00
2019-04-01T16:45:26.703Z,17.10
2019-04-01T16:47:55.394Z,17.10
2019-04-01T16:50:24.085Z,17.20
2019-04-01T16:52:52.671Z,17.20
2019-04-01T16:55:21.251Z,17.10
2019-04-01T16:57:50.316Z,17.10
2019-04-01T17:00:19.648Z,17.10
2019-04-01T17:02:49.157Z,17.00
2019-04-01T17:05:26.809Z,17.00
2019-04-01T17:07:55.991Z,16.90
2019-04-01T17:10:25.164Z,16.80
2019-04-01T17:12:54.219Z,16.70
2019-04-01T17:15:25.090Z,16.70
2019-04-01T17:17:53.799Z,16.60
2019-04-01T17:20:22.842Z,16.50
2019-04-01T17:22:51.418Z,16.40
2019-04-01T17:25:20.082Z,16.40
2019-04-01T17:27:48.704Z,16.30
2019-04-01T17:30:17.549Z,16.20
2019-04-01T17:32:45.983Z,16.10
2019-04-01T17:35:15.197Z,16.00
2019-04-01T17:37:43.795Z,15.90
2019-04-01T17:40:12.929Z,15.90
2019-04-01T17:42:41.523Z,15.80
2019-04-01T17:45:35.587Z,15.70
2019-04-01T17:48:05.369Z,15.60
2019-04-01T17:50:34.787Z,15.50
2019-04-01T17:53:07.468Z,15.40
2019-04-01T17:55:36.371Z,15.20
2019-04-01T17:58:06.291Z,15.20
2019-04-01T18:00:37.303Z,15.10
2019-04-01T18:03:09.192Z,15.00
2019-04-01T18:05:36.123Z,14.90
2019-04-01T18:08:06.316Z,14.80
2019-04-01T18:10:34.830Z,14.70
2019-04-01T18:13:03.643Z,14.60
2019-04-01T18:15:32.208Z,14.50
2019-04-01T18:18:00.625Z,14.50
2019-04-01T18:20:29.720Z,14.40
2019-04-01T18:22:58.395Z,14.30
2019-04-01T18:25:26.902Z,14.20
2019-04-01T18:27:55.599Z,14.10
2019-04-01T18:30:24.497Z,14.00
2019-04-01T18:32:55.261Z,14.00
2019-04-01T18:35:26.195Z,13.90
2019-04-01T18:37:55.779Z,13.90
2019-04-01T18:40:32.632Z,13.80
2019-04-01T18:42:54.859Z,13.70
2019-04-01T18:45:23.547Z,13.70
2019-04-01T18:47:51.940Z,13.60
2019-04-01T18:50:20.740Z,13.60
2019-04-01T18:52:49.471Z,13.50
2019-04-01T18:55:19.433Z,13.50
2019-04-01T18:57:49.919Z,13.40
2019-04-01T19:00:18.996Z,13.40
2019-04-01T19:02:48.073Z,13.30
2019-04-01T19:05:17.021Z,13.30
2019-04-01T19:07:45.735Z,13.20
2019-04-01T19:10:14.934Z,13.10
2019-04-01T19:12:43.796Z,13.10
2019-04-01T19:15:12.817Z,13.00
2019-04-01T19:17:42.269Z,13.00
2019-04-01T19:20:12.222Z,12.90
2019-04-01T19:22:40.893Z,12.80
2019-04-01T19:25:09.896Z,12.80
2019-04-01T19:27:39.029Z,12.80
2019-04-01T19:30:09.879Z,12.70
2019-04-01T19:32:38.923Z,12.60
2019-04-01T19:35:09.607Z,12.60
2019-04-01T19:37:38.419Z,12.60
2019-04-01T19:40:07.896Z,12.60
2019-04-01T19:42:39.558Z,12.60
2019-04-01T19:45:11.155Z,12.60
2019-04-01T19:47:40.530Z,12.50
2019-04-01T19:50:09.032Z,12.40
2019-04-01T19:52:37.894Z,12.30
2019-04-01T19:55:08.202Z,12.30
2019-04-01T19:57:38.956Z,12.20
2019-04-01T20:00:09.404Z,12.20
2019-04-01T20:02:38.197Z,12.20
2019-04-01T20:05:08.037Z,12.10
2019-04-01T20:07:37.069Z,12.10
2019-04-01T20:10:06.417Z,12.00
2019-04-01T20:12:34.926Z,11.80
2019-04-01T20:15:05.265Z,11.70
2019-04-01T20:17:33.989Z,11.60
2019-04-01T20:20:03.693Z,11.60
2019-04-01T20:22:32.495Z,11.60
2019-04-01T20:25:01.261Z,11.60
2019-04-01T20:27:30.466Z,11.60
2019-04-01T20:29:59.064Z,11.50
2019-04-01T20:32:27.787Z,11.50
2019-04-01T20:34:57.436Z,11.50
2019-04-01T20:37:26.768Z,11.40
2019-04-01T20:39:55.643Z,11.40
2019-04-01T20:42:24.557Z,11.30
2019-04-01T20:44:53.155Z,11.30
2019-04-01T20:47:21.876Z,11.30
2019-04-01T20:49:50.272Z,11.30
2019-04-01T20:52:20.162Z,11.20
2019-04-01T20:54:48.595Z,11.10
2019-04-01T20:57:17.340Z,11.10
2019-04-01T20:59:46.855Z,11.10
2019-04-01T21:02:15.496Z,11.10
2019-04-01T21:04:43.945Z,11.00
2019-04-01T21:07:12.647Z,11.00
2019-04-01T21:09:41.515Z,11.00
2019-04-01T21:12:10.288Z,11.00
2019-04-01T21:14:41.093Z,10.90
2019-04-01T21:17:09.673Z,10.80
2019-04-01T21:19:39.785Z,10.80
2019-04-01T21:22:09.583Z,10.70
2019-04-01T21:24:38.290Z,10.70
2019-04-01T21:27:06.881Z,10.70
2019-04-01T21:29:35.586Z,10.70
2019-04-01T21:32:04.469Z,10.80
2019-04-01T21:34:34.436Z,10.70
2019-04-01T21:37:03.471Z,10.60
2019-04-01T21:39:32.202Z,10.60
2019-04-01T21:42:01.048Z,10.50
2019-04-01T21:44:29.595Z,10.50
2019-04-01T21:46:58.252Z,10.50
2019-04-01T21:49:26.905Z,10.40
2019-04-01T21:51:55.447Z,10.30
2019-04-01T21:54:23.933Z,10.30
2019-04-01T21:56:52.581Z,10.30
2019-04-01T21:59:21.338Z,10.30
2019-04-01T22:01:50.051Z,10.20
2019-04-01T22:04:19.285Z,10.10
2019-04-01T22:06:48.496Z,10.20
2019-04-01T22:09:17.340Z,10.10
2019-04-01T22:11:45.905Z,10.10
2019-04-01T22:14:14.295Z,10.10
2019-04-01T22:16:42.933Z,10.10
2019-04-01T22:19:12.307Z,10.10
2019-04-01T22:21:41.328Z,10.00
2019-04-01T22:24:09.898Z,10.10
2019-04-01T22:26:38.588Z,10.10
2019-04-01T22:29:07.258Z,10.10
2019-04-01T22:31:37.694Z,10.00
2019-04-01T22:34:06.510Z,10.00
2019-04-01T22:36:34.909Z,10.00
2019-04-01T22:39:05.890Z,9.90
2019-04-01T22:41:35.265Z,9.90
2019-04-01T22:44:03.972Z,10.00
2019-04-01T22:46:34.613Z,10.00
2019-04-01T22:49:04.402Z,10.00
2019-04-01T22:51:33.018Z,10.00
2019-04-01T22:54:02.295Z,10.00
2019-04-01T22:56:31.187Z,10.00
2019-04-01T22:59:00.266Z,9.90
2019-04-01T23:01:29.096Z,9.80
2019-04-01T23:03:57.693Z,9.70
2019-04-01T23:06:26.923Z,9.60
2019-04-01T23:08:57.278Z,9.70
2019-04-01T23:11:25.681Z,9.70
2019-04-01T23:13:54.585Z,9.50
2019-04-01T23:16:23.531Z,9.60
2019-04-01T23:18:54.107Z,9.60
2019-04-01T23:21:22.775Z,9.70
2019-04-01T23:23:59.141Z,9.70
2019-04-01T23:26:28.051Z,9.70
2019-04-01T23:28:56.630Z,9.70
2019-04-01T23:31:25.111Z,9.60
2019-04-01T23:33:53.711Z,9.60
2019-04-01T23:36:22.220Z,9.60
2019-04-01T23:38:50.599Z,9.80
2019-04-01T23:41:19.162Z,9.80
2019-04-01T23:43:47.572Z,9.80
2019-04-01T23:46:16.077Z,9.80
2019-04-01T23:48:44.796Z,9.90
2019-04-01T23:51:13.300Z,9.90
2019-04-01T23:53:42.072Z,9.90
2019-04-01T23:56:20.027Z,10.00
2019-04-01T23:58:48.452Z,10.00
